Time;durP1;ratioP1;P1;durP2;ratioP2;P2;SDS_P1;SDS_P2;PMS_P1;PMS_P2;Temp;Humidity;BMP_temperature;BMP_pressure;BME280_temperature;BME280_humidity;BME280_pressure;Samples;Min_cycle;Max_cycle;Signal;HPM_P1;HPM_P2
2022/06/04 00:01:17;;;;;;;24.88;10.48;;;;;;;;;;4969058;28;20065;-72
2022/06/04 00:03:47;;;;;;;16.27;7.53;;;;;;;;;;4938299;29;20058;-72
2022/06/04 00:06:18;;;;;;;14.70;6.47;;;;;;;;;;4933603;29;20082;-71
2022/06/04 00:08:48;;;;;;;18.05;6.85;;;;;;;;;;4882656;29;20052;-71
2022/06/04 00:16:56;;;;;;;17.55;8.98;;;;;;;;;;4931726;29;20071;-72
2022/06/04 00:19:27;;;;;;;10.70;5.32;;;;;;;;;;4897073;29;20167;-72
2022/06/04 00:21:58;;;;;;;11.40;5.20;;;;;;;;;;4897416;29;20547;-72
2022/06/04 00:24:30;;;;;;;12.77;5.57;;;;;;;;;;4897975;29;20062;-71
2022/06/04 00:27:00;;;;;;;12.32;5.60;;;;;;;;;;4913086;29;20048;-73
2022/06/04 00:29:33;;;;;;;11.00;5.07;;;;;;;;;;4894157;29;20060;-73
2022/06/04 00:32:04;;;;;;;11.63;5.35;;;;;;;;;;4913101;29;20056;-72
2022/06/04 00:34:35;;;;;;;14.48;5.13;;;;;;;;;;4913275;29;20064;-71
2022/06/04 00:37:05;;;;;;;18.25;7.68;;;;;;;;;;4925229;29;20424;-70
2022/06/04 00:39:35;;;;;;;14.55;6.78;;;;;;;;;;4908931;29;20519;-72
2022/06/04 00:42:12;;;;;;;9.52;4.82;;;;;;;;;;4964355;28;20069;-72
2022/06/04 00:44:49;;;;;;;13.60;6.22;;;;;;;;;;4970993;28;20062;-71
2022/06/04 00:47:28;;;;;;;11.48;4.72;;;;;;;;;;4967285;28;20043;-70
2022/06/04 00:49:59;;;;;;;10.98;3.83;;;;;;;;;;4971163;28;20059;-71
2022/06/04 00:52:30;;;;;;;10.18;4.25;;;;;;;;;;4932426;29;20048;-71
2022/06/04 00:55:03;;;;;;;11.77;5.00;;;;;;;;;;4932846;29;20055;-70
2022/06/04 00:57:52;;;;;;;12.75;4.28;;;;;;;;;;4945802;29;20059;-71
2022/06/04 01:00:30;;;;;;;11.07;5.07;;;;;;;;;;4959037;28;20527;-71
2022/06/04 01:03:31;;;;;;;9.98;4.53;;;;;;;;;;4970810;28;20051;-69
2022/06/04 01:06:17;;;;;;;12.77;5.75;;;;;;;;;;4951752;29;20427;-70
2022/06/04 01:09:15;;;;;;;16.48;5.72;;;;;;;;;;4915637;29;20064;-70
2022/06/04 01:12:32;;;;;;;12.27;5.00;;;;;;;;;;4932384;29;20060;-69
2022/06/04 01:15:17;;;;;;;11.70;4.35;;;;;;;;;;4932277;29;20063;-69
2022/06/04 01:18:13;;;;;;;11.63;4.78;;;;;;;;;;4932127;29;20063;-69
2022/06/04 01:21:02;;;;;;;12.00;5.03;;;;;;;;;;4932117;29;20070;-70
2022/06/04 01:24:06;;;;;;;12.57;5.85;;;;;;;;;;4932347;29;20064;-69
2022/06/04 01:27:01;;;;;;;10.50;4.13;;;;;;;;;;4953021;28;20063;-69
2022/06/04 01:29:54;;;;;;;9.45;4.22;;;;;;;;;;4926863;28;20189;-69
2022/06/04 01:32:27;;;;;;;9.07;3.97;;;;;;;;;;4990086;28;20081;-71
2022/06/04 01:35:03;;;;;;;10.05;4.53;;;;;;;;;;4984392;28;20058;-70
2022/06/04 01:37:38;;;;;;;11.07;4.25;;;;;;;;;;4989761;28;20054;-69
2022/06/04 01:43:09;;;;;;;10.77;4.35;;;;;;;;;;5009837;28;20053;-69
2022/06/04 01:45:43;;;;;;;11.90;5.47;;;;;;;;;;5013323;28;20049;-70
2022/06/04 01:48:17;;;;;;;9.57;3.75;;;;;;;;;;5029309;28;20056;-69
2022/06/04 01:50:58;;;;;;;9.95;4.15;;;;;;;;;;5006069;28;20064;-69
2022/06/04 01:53:33;;;;;;;8.75;3.75;;;;;;;;;;5049036;28;20156;-72
2022/06/04 01:56:32;;;;;;;10.57;4.15;;;;;;;;;;5048871;28;20068;-69
2022/06/04 01:59:18;;;;;;;7.75;3.10;;;;;;;;;;5048498;28;20044;-69
2022/06/04 02:01:52;;;;;;;7.30;3.17;;;;;;;;;;5012635;28;20050;-71
2022/06/04 02:04:30;;;;;;;13.48;4.18;;;;;;;;;;5028807;28;20057;-69
2022/06/04 02:07:31;;;;;;;7.32;3.60;;;;;;;;;;5029067;28;20053;-69
2022/06/04 02:10:14;;;;;;;7.30;3.50;;;;;;;;;;5028867;28;20062;-69
2022/06/04 02:12:49;;;;;;;8.35;3.72;;;;;;;;;;5031307;28;20049;-75
2022/06/04 02:15:24;;;;;;;8.63;3.90;;;;;;;;;;5035024;28;20065;-70
2022/06/04 02:17:57;;;;;;;9.98;4.10;;;;;;;;;;5028759;28;20049;-69
2022/06/04 02:20:28;;;;;;;10.10;4.00;;;;;;;;;;5028568;28;20497;-70
2022/06/04 02:22:59;;;;;;;10.43;4.15;;;;;;;;;;5028860;28;20049;-69
2022/06/04 02:25:31;;;;;;;7.63;3.50;;;;;;;;;;5008666;28;20061;-69
2022/06/04 02:28:02;;;;;;;8.18;4.57;;;;;;;;;;4976186;28;20431;-69
2022/06/04 02:31:18;;;;;;;8.98;4.03;;;;;;;;;;4989012;28;20074;-69
2022/06/04 02:34:23;;;;;;;7.55;3.20;;;;;;;;;;4950594;28;20531;-72
2022/06/04 02:37:18;;;;;;;7.57;3.53;;;;;;;;;;4912181;29;20060;-69
2022/06/04 02:40:21;;;;;;;7.63;3.25;;;;;;;;;;4899810;29;20056;-70
2022/06/04 02:43:05;;;;;;;8.27;3.55;;;;;;;;;;4893408;29;20063;-73
2022/06/04 02:45:43;;;;;;;8.57;3.67;;;;;;;;;;4893442;29;20418;-70
2022/06/04 02:48:18;;;;;;;8.82;3.83;;;;;;;;;;4893387;29;20064;-70
2022/06/04 02:50:58;;;;;;;11.65;3.85;;;;;;;;;;4893515;29;20063;-70
2022/06/04 02:53:32;;;;;;;10.18;3.88;;;;;;;;;;4892934;29;20059;-72
2022/06/04 02:56:16;;;;;;;8.32;4.03;;;;;;;;;;4893433;29;20052;-70
2022/06/04 02:58:50;;;;;;;7.05;3.33;;;;;;;;;;4911943;29;20052;-70
2022/06/04 03:01:22;;;;;;;8.43;3.38;;;;;;;;;;4912259;29;20449;-70
2022/06/04 03:03:52;;;;;;;9.40;3.80;;;;;;;;;;4880658;29;20068;-70
2022/06/04 03:06:31;;;;;;;10.15;4.22;;;;;;;;;;4923578;29;20059;-69
2022/06/04 03:09:11;;;;;;;7.57;3.53;;;;;;;;;;4912356;29;20060;-69
2022/06/04 03:11:47;;;;;;;9.02;3.85;;;;;;;;;;4951377;28;20070;-70
2022/06/04 03:14:19;;;;;;;8.00;3.30;;;;;;;;;;4973424;28;20047;-70
2022/06/04 03:16:49;;;;;;;9.77;3.50;;;;;;;;;;4941262;28;20051;-70
2022/06/04 03:19:21;;;;;;;9.48;3.83;;;;;;;;;;5008375;28;20046;-70
2022/06/04 03:21:51;;;;;;;8.57;3.78;;;;;;;;;;5012232;28;20529;-71
2022/06/04 03:24:21;;;;;;;8.30;3.50;;;;;;;;;;5012214;28;20498;-69
2022/06/04 03:26:52;;;;;;;10.55;4.43;;;;;;;;;;4992011;28;20058;-70
2022/06/04 03:29:23;;;;;;;7.63;3.65;;;;;;;;;;4976109;28;20046;-70
2022/06/04 03:31:54;;;;;;;13.80;3.88;;;;;;;;;;4992593;28;20062;-69
2022/06/04 03:34:24;;;;;;;8.82;4.10;;;;;;;;;;4976037;28;20055;-69
2022/06/04 03:36:54;;;;;;;8.57;3.78;;;;;;;;;;4985848;28;20053;-71
2022/06/04 03:39:25;;;;;;;9.55;4.40;;;;;;;;;;4991997;28;20054;-71
2022/06/04 03:41:55;;;;;;;11.02;3.88;;;;;;;;;;4992243;28;20542;-71
2022/06/04 03:44:25;;;;;;;9.80;3.78;;;;;;;;;;4978974;28;20054;-70
2022/06/04 03:46:56;;;;;;;8.43;4.15;;;;;;;;;;4972629;28;20050;-69
2022/06/04 03:49:26;;;;;;;9.77;4.30;;;;;;;;;;4940383;28;20050;-68
2022/06/04 03:51:56;;;;;;;9.57;4.78;;;;;;;;;;4953073;28;20174;-69
2022/06/04 04:00:12;;;;;;;9.45;4.10;;;;;;;;;;4895979;29;20052;-69
2022/06/04 04:02:48;;;;;;;9.38;4.45;;;;;;;;;;4895969;29;20056;-70
2022/06/04 04:05:21;;;;;;;8.88;4.00;;;;;;;;;;4911320;29;20519;-69
2022/06/04 04:07:54;;;;;;;9.40;4.35;;;;;;;;;;4899141;29;20064;-69
2022/06/04 04:10:26;;;;;;;9.02;4.03;;;;;;;;;;4914948;29;20068;-69
2022/06/04 04:12:57;;;;;;;7.95;3.88;;;;;;;;;;4914093;29;20044;-69
2022/06/04 04:15:27;;;;;;;10.88;4.05;;;;;;;;;;4898979;29;20083;-69
2022/06/04 04:17:59;;;;;;;12.75;4.30;;;;;;;;;;4882963;29;20048;-69
2022/06/04 04:20:32;;;;;;;8.00;4.30;;;;;;;;;;4914649;29;20060;-69
2022/06/04 04:23:04;;;;;;;10.82;5.00;;;;;;;;;;4913263;29;20440;-70
2022/06/04 04:25:35;;;;;;;10.35;4.28;;;;;;;;;;4949602;28;20098;-70
2022/06/04 04:28:08;;;;;;;9.60;4.22;;;;;;;;;;4952268;28;20066;-69
2022/06/04 04:30:39;;;;;;;10.00;4.15;;;;;;;;;;4916725;29;20059;-70
2022/06/04 04:33:09;;;;;;;8.70;4.05;;;;;;;;;;4931797;29;20086;-68
2022/06/04 04:35:39;;;;;;;11.93;5.25;;;;;;;;;;4985011;28;20396;-69
2022/06/04 04:38:11;;;;;;;10.95;4.68;;;;;;;;;;4975178;28;20094;-69
2022/06/04 04:40:43;;;;;;;13.60;6.25;;;;;;;;;;4991200;28;20392;-70
2022/06/04 04:43:13;;;;;;;12.38;4.55;;;;;;;;;;4974986;28;20058;-70
2022/06/04 04:45:44;;;;;;;10.13;4.53;;;;;;;;;;4990971;28;20050;-69
2022/06/04 04:48:18;;;;;;;11.23;4.63;;;;;;;;;;4916790;29;20093;-69
2022/06/04 04:50:49;;;;;;;9.45;4.32;;;;;;;;;;4917303;29;20056;-72
2022/06/04 04:53:19;;;;;;;12.93;4.53;;;;;;;;;;4917180;29;20517;-70
2022/06/04 04:55:49;;;;;;;10.90;4.72;;;;;;;;;;4935865;29;20496;-69
2022/06/04 04:58:20;;;;;;;13.45;4.97;;;;;;;;;;4951768;29;20067;-69
2022/06/04 05:00:50;;;;;;;11.80;5.20;;;;;;;;;;4951972;29;20063;-70
2022/06/04 05:03:21;;;;;;;13.88;5.13;;;;;;;;;;4951747;29;20055;-69
2022/06/04 05:06:02;;;;;;;10.80;4.47;;;;;;;;;;4913579;29;20044;-69
2022/06/04 05:08:33;;;;;;;11.60;6.28;;;;;;;;;;4898397;29;20063;-70
2022/06/04 05:11:08;;;;;;;11.35;4.80;;;;;;;;;;4914403;29;20065;-70
2022/06/04 05:13:39;;;;;;;10.43;4.57;;;;;;;;;;4913956;29;20052;-69
2022/06/04 05:16:10;;;;;;;10.63;4.32;;;;;;;;;;4913990;29;20064;-69
2022/06/04 05:18:40;;;;;;;12.90;4.78;;;;;;;;;;4859887;29;20049;-69
2022/06/04 05:21:21;;;;;;;10.63;5.05;;;;;;;;;;4857404;29;20057;-70
2022/06/04 05:23:55;;;;;;;12.02;4.55;;;;;;;;;;4853769;29;20057;-69
2022/06/04 05:26:26;;;;;;;11.02;4.78;;;;;;;;;;4869579;29;20206;-70
2022/06/04 05:28:56;;;;;;;11.82;5.28;;;;;;;;;;4915254;29;20064;-69
2022/06/04 05:31:26;;;;;;;14.25;5.68;;;;;;;;;;4900240;29;20562;-69
2022/06/04 05:33:57;;;;;;;13.52;6.30;;;;;;;;;;4918702;29;20048;-69
2022/06/04 05:36:29;;;;;;;14.48;7.13;;;;;;;;;;4913046;29;20405;-69
2022/06/04 05:39:00;;;;;;;14.55;6.20;;;;;;;;;;4913077;29;20052;-69
2022/06/04 05:41:30;;;;;;;14.20;5.80;;;;;;;;;;4897148;29;20060;-69
2022/06/04 05:44:00;;;;;;;14.98;5.95;;;;;;;;;;4953213;28;20054;-70
2022/06/04 05:46:31;;;;;;;13.70;5.63;;;;;;;;;;4950969;29;20055;-69
2022/06/04 05:49:02;;;;;;;14.10;6.22;;;;;;;;;;4950974;29;20072;-69
2022/06/04 05:51:32;;;;;;;16.05;6.05;;;;;;;;;;4950918;29;20055;-69
2022/06/04 05:54:02;;;;;;;14.32;5.65;;;;;;;;;;4951085;29;20059;-69
2022/06/04 05:56:37;;;;;;;;;;;;;;;;;;4963136;28;20058;-69
2022/06/04 05:59:10;;;;;;;14.88;5.45;;;;;;;;;;4950722;29;19922;-71
2022/06/04 06:01:42;;;;;;;13.90;5.10;;;;;;;;;;4902297;29;20068;-69
2022/06/04 06:04:15;;;;;;;14.57;5.75;;;;;;;;;;4915210;29;20071;-69
2022/06/04 06:06:49;;;;;;;;;;;;;;;;;;4932279;29;20097;-69
2022/06/04 06:09:22;;;;;;;13.30;5.60;;;;;;;;;;4931813;29;20370;-69
2022/06/04 06:11:54;;;;;;;18.08;5.93;;;;;;;;;;4967889;28;20051;-69
2022/06/04 06:14:25;;;;;;;17.88;6.53;;;;;;;;;;4950818;29;20479;-69
2022/06/04 06:16:56;;;;;;;20.60;7.15;;;;;;;;;;4950869;29;20100;-69
2022/06/04 06:19:26;;;;;;;20.63;7.18;;;;;;;;;;4912140;29;20059;-69
2022/06/04 06:21:56;;;;;;;19.35;7.15;;;;;;;;;;4896979;29;20398;-70
2022/06/04 06:24:26;;;;;;;20.73;6.57;;;;;;;;;;4912745;29;20083;-69
2022/06/04 06:26:59;;;;;;;16.15;6.80;;;;;;;;;;4912419;29;20056;-70
2022/06/04 06:29:31;;;;;;;17.85;6.05;;;;;;;;;;4912260;29;20083;-69
2022/06/04 06:32:02;;;;;;;18.95;6.05;;;;;;;;;;4912271;29;20517;-69
2022/06/04 06:34:32;;;;;;;16.63;6.55;;;;;;;;;;4912812;29;20117;-70
2022/06/04 06:37:03;;;;;;;19.75;7.07;;;;;;;;;;4943101;28;20059;-70
2022/06/04 06:39:33;;;;;;;15.85;5.95;;;;;;;;;;4942232;28;20050;-69
2022/06/04 06:42:04;;;;;;;21.30;7.05;;;;;;;;;;4973450;28;20054;-69
2022/06/04 06:44:51;;;;;;;21.65;6.63;;;;;;;;;;4950326;28;20051;-69
2022/06/04 06:47:22;;;;;;;15.55;6.38;;;;;;;;;;4915919;29;20417;-69
2022/06/04 06:49:53;;;;;;;13.55;5.53;;;;;;;;;;4916232;29;20068;-69
2022/06/04 06:52:24;;;;;;;18.65;5.85;;;;;;;;;;4928302;29;20512;-69
2022/06/04 06:54:54;;;;;;;16.25;5.55;;;;;;;;;;4884219;29;20059;-70
2022/06/04 06:57:24;;;;;;;14.93;4.90;;;;;;;;;;4916107;29;20083;-69
2022/06/04 06:59:55;;;;;;;14.13;6.15;;;;;;;;;;4915767;29;20416;-70
2022/06/04 07:02:25;;;;;;;14.25;5.00;;;;;;;;;;4915523;29;20059;-69
2022/06/04 07:04:55;;;;;;;13.50;5.35;;;;;;;;;;4915705;29;20075;-69
2022/06/04 07:07:25;;;;;;;13.88;5.30;;;;;;;;;;4915871;29;20056;-69
2022/06/04 07:09:56;;;;;;;13.45;4.85;;;;;;;;;;4916340;29;20129;-69
2022/06/04 07:12:26;;;;;;;15.13;5.78;;;;;;;;;;4896664;29;20465;-69
2022/06/04 07:14:56;;;;;;;13.70;4.70;;;;;;;;;;4909487;29;20071;-69
2022/06/04 07:17:26;;;;;;;11.70;5.05;;;;;;;;;;4933876;29;20052;-71
2022/06/04 07:19:56;;;;;;;11.82;5.22;;;;;;;;;;4934581;29;20051;-69
2022/06/04 07:22:27;;;;;;;13.45;5.20;;;;;;;;;;4915162;29;20048;-69
2022/06/04 07:24:57;;;;;;;10.20;4.55;;;;;;;;;;4915836;29;20056;-70
2022/06/04 07:27:27;;;;;;;12.10;4.72;;;;;;;;;;4896402;29;20490;-69
2022/06/04 07:29:58;;;;;;;12.50;4.57;;;;;;;;;;4895876;29;20076;-69
2022/06/04 07:32:28;;;;;;;9.13;4.13;;;;;;;;;;4896010;29;20061;-72
2022/06/04 07:34:58;;;;;;;11.88;4.32;;;;;;;;;;4896404;29;20597;-69
2022/06/04 07:37:28;;;;;;;8.75;3.97;;;;;;;;;;4879213;29;20068;-69
2022/06/04 07:39:59;;;;;;;10.35;4.22;;;;;;;;;;4875854;29;20057;-69
2022/06/04 07:42:29;;;;;;;8.65;4.03;;;;;;;;;;4911018;29;20052;-69
2022/06/04 07:44:59;;;;;;;9.27;4.25;;;;;;;;;;4896280;29;20409;-69
2022/06/04 07:47:29;;;;;;;10.00;4.22;;;;;;;;;;4896426;29;20053;-69
2022/06/04 07:50:00;;;;;;;8.30;4.05;;;;;;;;;;4896124;29;20067;-71
2022/06/04 07:52:31;;;;;;;9.32;4.00;;;;;;;;;;4953147;28;20051;-69
2022/06/04 07:55:03;;;;;;;9.23;3.83;;;;;;;;;;4962013;28;20594;-70
2022/06/04 07:57:37;;;;;;;9.63;4.22;;;;;;;;;;4971968;28;20061;-69
2022/06/04 08:00:09;;;;;;;9.68;4.47;;;;;;;;;;4956498;28;20058;-69
2022/06/04 08:02:45;;;;;;;11.00;5.43;;;;;;;;;;4972873;28;20058;-69
2022/06/04 08:05:17;;;;;;;7.97;4.07;;;;;;;;;;4983043;28;20046;-69
2022/06/04 08:07:47;;;;;;;8.60;3.67;;;;;;;;;;4991398;28;20050;-69
2022/06/04 08:10:17;;;;;;;8.18;4.10;;;;;;;;;;5002575;28;20445;-70
2022/06/04 08:12:49;;;;;;;7.55;3.08;;;;;;;;;;4991284;28;20058;-69
2022/06/04 08:15:20;;;;;;;10.73;3.80;;;;;;;;;;4991256;28;20062;-69
2022/06/04 08:17:50;;;;;;;7.60;3.47;;;;;;;;;;4991107;28;20055;-69
2022/06/04 08:20:21;;;;;;;8.27;3.40;;;;;;;;;;5002451;28;20042;-69
2022/06/04 08:22:53;;;;;;;6.63;3.60;;;;;;;;;;5010977;28;20477;-69
2022/06/04 08:25:23;;;;;;;7.93;3.53;;;;;;;;;;4943036;28;20050;-69
2022/06/04 08:27:53;;;;;;;7.55;3.13;;;;;;;;;;4991515;28;20103;-70
2022/06/04 08:30:23;;;;;;;6.10;2.67;;;;;;;;;;4991131;28;20062;-70
2022/06/04 08:32:54;;;;;;;6.65;3.03;;;;;;;;;;4991106;28;20058;-69
2022/06/04 08:35:25;;;;;;;6.13;3.05;;;;;;;;;;4991238;28;20058;-69
2022/06/04 08:37:56;;;;;;;7.80;3.40;;;;;;;;;;4991313;28;20061;-68
2022/06/04 08:40:37;;;;;;;5.85;2.78;;;;;;;;;;4920205;28;20059;-69
2022/06/04 08:43:15;;;;;;;7.28;2.63;;;;;;;;;;4952557;28;20055;-69
2022/06/04 08:45:45;;;;;;;6.78;2.95;;;;;;;;;;4952224;28;20055;-69
2022/06/04 08:48:21;;;;;;;6.28;3.03;;;;;;;;;;4971320;28;20050;-69
2022/06/04 08:50:54;;;;;;;9.07;3.33;;;;;;;;;;4958673;28;20063;-72
2022/06/04 08:53:27;;;;;;;6.50;3.05;;;;;;;;;;4920361;29;20055;-69
2022/06/04 08:59:06;;;;;;;6.55;3.13;;;;;;;;;;4968739;28;20423;-70
2022/06/04 09:01:40;;;;;;;6.50;2.78;;;;;;;;;;4971048;28;20058;-69
2022/06/04 09:04:45;;;;;;;17.27;3.95;;;;;;;;;;4957415;28;20419;-70
2022/06/04 09:07:36;;;;;;;11.75;2.80;;;;;;;;;;4913610;29;20048;-70
2022/06/04 09:10:26;;;;;;;7.82;3.25;;;;;;;;;;4919511;29;20096;-69
2022/06/04 09:13:24;;;;;;;18.55;3.72;;;;;;;;;;4932920;29;20665;-69
2022/06/04 09:15:59;;;;;;;14.75;4.43;;;;;;;;;;4932506;29;20039;-70
2022/06/04 09:18:35;;;;;;;11.93;3.95;;;;;;;;;;4932561;29;20493;-69
2022/06/04 09:21:10;;;;;;;12.77;4.13;;;;;;;;;;4951501;29;20050;-70
2022/06/04 09:23:47;;;;;;;19.85;5.03;;;;;;;;;;4919619;29;20380;-69
2022/06/04 09:26:34;;;;;;;14.02;4.45;;;;;;;;;;4938731;29;20059;-70
2022/06/04 09:29:32;;;;;;;10.40;3.67;;;;;;;;;;4932339;29;20067;-70
2022/06/04 09:32:11;;;;;;;11.10;3.30;;;;;;;;;;4932186;29;20087;-70
2022/06/04 09:34:47;;;;;;;11.32;3.50;;;;;;;;;;4914399;29;20059;-71
2022/06/04 09:37:18;;;;;;;14.57;3.80;;;;;;;;;;4897618;29;20060;-71
2022/06/04 09:40:05;;;;;;;11.30;4.10;;;;;;;;;;4940818;29;20055;-71
2022/06/04 09:42:36;;;;;;;11.15;4.43;;;;;;;;;;4951162;29;20531;-70
2022/06/04 09:45:16;;;;;;;17.70;6.07;;;;;;;;;;4945948;29;20548;-71
2022/06/04 09:47:53;;;;;;;15.60;5.43;;;;;;;;;;4950698;29;20063;-71
2022/06/04 09:50:35;;;;;;;11.27;4.40;;;;;;;;;;4951282;29;20059;-70
2022/06/04 09:53:27;;;;;;;10.85;4.55;;;;;;;;;;4951198;29;20047;-71
2022/06/04 09:56:15;;;;;;;10.20;4.70;;;;;;;;;;4950876;28;20054;-71
2022/06/04 09:58:48;;;;;;;10.70;4.65;;;;;;;;;;4960588;28;20503;-71
2022/06/04 10:01:23;;;;;;;17.25;7.90;;;;;;;;;;4958794;28;20541;-70
2022/06/04 10:04:04;;;;;;;14.70;6.03;;;;;;;;;;5007487;28;20045;-71
2022/06/04 10:06:38;;;;;;;;;;;;;;;;;;5009488;28;20057;-71
2022/06/04 10:12:16;;;;;;;9.50;3.70;;;;;;;;;;4969803;28;20051;-71
2022/06/04 10:14:59;;;;;;;9.23;3.83;;;;;;;;;;4970104;28;20058;-71
2022/06/04 10:17:37;;;;;;;6.28;3.00;;;;;;;;;;4969803;28;20166;-71
2022/06/04 10:20:27;;;;;;;8.48;3.55;;;;;;;;;;4937239;28;20074;-73
2022/06/04 10:22:58;;;;;;;8.02;3.97;;;;;;;;;;4997287;28;20054;-69
2022/06/04 10:25:42;;;;;;;8.15;3.65;;;;;;;;;;5020172;28;20143;-68
2022/06/04 10:28:44;;;;;;;7.45;3.58;;;;;;;;;;5007004;28;20042;-70
2022/06/04 10:31:25;;;;;;;8.60;3.40;;;;;;;;;;4918874;28;20055;-70
2022/06/04 10:34:24;;;;;;;7.07;3.88;;;;;;;;;;4969675;28;20763;-69
2022/06/04 10:37:12;;;;;;;7.18;3.17;;;;;;;;;;4922240;28;20070;-69
2022/06/04 10:39:57;;;;;;;8.95;3.90;;;;;;;;;;4961261;28;20051;-69
2022/06/04 10:42:46;;;;;;;10.88;4.47;;;;;;;;;;4986560;28;20055;-69
2022/06/04 10:45:27;;;;;;;13.02;4.72;;;;;;;;;;4989550;28;20050;-68
2022/06/04 10:48:25;;;;;;;11.63;5.03;;;;;;;;;;4988722;28;20050;-69
2022/06/04 10:54:12;;;;;;;8.50;4.43;;;;;;;;;;4938866;28;20050;-71
2022/06/04 10:56:54;;;;;;;9.07;4.65;;;;;;;;;;4988855;28;20062;-71
2022/06/04 10:59:40;;;;;;;10.13;4.93;;;;;;;;;;4988728;28;20063;-71
2022/06/04 11:02:33;;;;;;;9.05;4.65;;;;;;;;;;4971204;28;20054;-71
2022/06/04 11:05:12;;;;;;;11.40;5.72;;;;;;;;;;4988214;28;20054;-69
2022/06/04 11:08:06;;;;;;;16.05;7.97;;;;;;;;;;4977175;28;20061;-69
2022/06/04 11:10:41;;;;;;;14.75;7.07;;;;;;;;;;5008105;28;20057;-71
2022/06/04 11:13:31;;;;;;;12.75;6.45;;;;;;;;;;5006195;28;20058;-70
2022/06/04 11:16:04;;;;;;;12.88;6.18;;;;;;;;;;4978676;28;20057;-70
2022/06/04 11:18:43;;;;;;;12.10;7.10;;;;;;;;;;4961098;28;20499;-70
2022/06/04 11:21:28;;;;;;;12.27;6.07;;;;;;;;;;4960627;28;20551;-71
2022/06/04 11:24:20;;;;;;;;;;;;;;;;;;4960189;28;20062;-69
2022/06/04 11:26:56;;;;;;;20.20;11.32;;;;;;;;;;4978842;28;19945;-69
2022/06/04 11:29:26;;;;;;;19.45;8.35;;;;;;;;;;4965382;28;20050;-73
2022/06/04 11:32:26;;;;;;;26.33;13.40;;;;;;;;;;4992937;28;20528;-70
2022/06/04 11:35:17;;;;;;;27.73;13.48;;;;;;;;;;4958628;28;20518;-72
2022/06/04 11:38:06;;;;;;;25.33;12.82;;;;;;;;;;4973520;28;20054;-70
2022/06/04 11:40:48;;;;;;;26.90;12.18;;;;;;;;;;4924461;29;20059;-69
2022/06/04 11:44:01;;;;;;;28.17;12.23;;;;;;;;;;4941502;29;20056;-69
2022/06/04 11:46:46;;;;;;;21.35;9.95;;;;;;;;;;4882556;29;20190;-69
2022/06/04 11:49:33;;;;;;;23.65;10.02;;;;;;;;;;4879090;29;20049;-69
2022/06/04 11:52:06;;;;;;;16.73;8.25;;;;;;;;;;4875482;29;20050;-69
2022/06/04 11:54:54;;;;;;;15.52;8.20;;;;;;;;;;4876600;29;20064;-69
2022/06/04 11:57:32;;;;;;;16.10;7.03;;;;;;;;;;4921239;29;20060;-68
2022/06/04 12:00:19;;;;;;;19.20;8.88;;;;;;;;;;4914779;29;20056;-67
2022/06/04 12:02:57;;;;;;;17.25;8.10;;;;;;;;;;4897864;29;20052;-71
2022/06/04 12:05:36;;;;;;;17.75;7.90;;;;;;;;;;4912814;29;20059;-68
2022/06/04 12:08:20;;;;;;;17.98;8.60;;;;;;;;;;4932456;29;20051;-68
2022/06/04 12:11:35;;;;;;;17.33;7.95;;;;;;;;;;4933554;29;20046;-67
2022/06/04 12:14:32;;;;;;;17.80;8.68;;;;;;;;;;4962165;28;20055;-69
2022/06/04 12:17:41;;;;;;;16.13;8.00;;;;;;;;;;5001492;28;20042;-69
2022/06/04 12:26:38;;;;;;;19.33;8.30;;;;;;;;;;5051568;28;20053;-68
2022/06/04 12:29:31;;;;;;;17.70;7.97;;;;;;;;;;4999404;28;20045;-68
2022/06/04 12:32:19;;;;;;;8.90;3.67;;;;;;;;;;5052082;28;20500;-68
2022/06/04 12:35:03;;;;;;;13.50;5.88;;;;;;;;;;5046319;28;20044;-68
2022/06/04 12:37:40;;;;;;;6.03;2.55;;;;;;;;;;5055712;28;20548;-68
2022/06/04 12:40:24;;;;;;;6.68;3.42;;;;;;;;;;5008861;28;20053;-68
2022/06/04 12:43:18;;;;;;;7.03;3.55;;;;;;;;;;4997818;28;20396;-69
2022/06/04 12:45:52;;;;;;;5.45;2.60;;;;;;;;;;5001967;28;20054;-70
2022/06/04 12:48:56;;;;;;;4.75;2.58;;;;;;;;;;4998427;28;20409;-68
2022/06/04 12:51:51;;;;;;;5.43;2.28;;;;;;;;;;5014946;28;20062;-68
2022/06/04 12:54:36;;;;;;;4.13;1.90;;;;;;;;;;5004766;28;20054;-70
2022/06/04 12:57:21;;;;;;;6.30;1.65;;;;;;;;;;4999211;28;20057;-68
2022/06/04 13:00:05;;;;;;;8.93;3.10;;;;;;;;;;4981766;28;20049;-68
2022/06/04 13:02:37;;;;;;;4.68;1.83;;;;;;;;;;5009825;28;20046;-70
2022/06/04 13:05:18;;;;;;;5.53;1.73;;;;;;;;;;5010676;28;20412;-69
2022/06/04 13:07:51;;;;;;;8.45;2.55;;;;;;;;;;4994378;28;20050;-69
2022/06/04 13:10:27;;;;;;;4.60;1.83;;;;;;;;;;5005680;28;20061;-69
2022/06/04 13:13:16;;;;;;;5.00;2.15;;;;;;;;;;5007402;28;20153;-69
2022/06/04 13:15:55;;;;;;;5.65;2.15;;;;;;;;;;5029683;28;20061;-69
2022/06/04 13:18:28;;;;;;;4.85;1.85;;;;;;;;;;4961159;28;20046;-71
2022/06/04 13:21:04;;;;;;;7.22;2.20;;;;;;;;;;5028753;28;20064;-69
2022/06/04 13:24:03;;;;;;;6.75;2.08;;;;;;;;;;5031054;28;20144;-69
2022/06/04 13:27:07;;;;;;;3.35;1.60;;;;;;;;;;5005967;28;20050;-70
2022/06/04 13:29:39;;;;;;;3.17;1.90;;;;;;;;;;4943963;29;20055;-69
2022/06/04 13:32:13;;;;;;;3.08;1.67;;;;;;;;;;4947712;28;20547;-67
2022/06/04 13:34:45;;;;;;;3.03;1.73;;;;;;;;;;4950299;28;20051;-67
2022/06/04 13:37:35;;;;;;;;;;;;;;;;;;4950914;28;20058;-71
2022/06/04 13:40:25;;;;;;;4.47;2.13;;;;;;;;;;4952323;28;19922;-70
2022/06/04 13:42:57;;;;;;;4.95;2.70;;;;;;;;;;4951263;28;20429;-70
2022/06/04 13:45:31;;;;;;;8.68;3.85;;;;;;;;;;4897908;28;20059;-68
2022/06/04 13:48:19;;;;;;;7.97;5.63;;;;;;;;;;4959970;28;20070;-67
2022/06/04 13:50:55;;;;;;;5.05;2.53;;;;;;;;;;4945133;28;20063;-67
2022/06/04 13:53:28;;;;;;;8.30;4.13;;;;;;;;;;4913385;29;20520;-68
2022/06/04 13:56:07;;;;;;;5.18;2.58;;;;;;;;;;4950745;28;20522;-67
2022/06/04 13:58:42;;;;;;;7.53;2.10;;;;;;;;;;4950644;28;20047;-67
2022/06/04 14:01:17;;;;;;;2.97;1.80;;;;;;;;;;4950537;29;20058;-68
2022/06/04 14:06:46;;;;;;;6.93;3.20;;;;;;;;;;5001418;28;20054;-67
2022/06/04 14:09:27;;;;;;;7.43;3.92;;;;;;;;;;5001968;28;20060;-67
2022/06/04 14:12:25;;;;;;;5.32;2.92;;;;;;;;;;5011652;28;20061;-69
2022/06/04 14:15:16;;;;;;;3.47;2.05;;;;;;;;;;4995772;28;20057;-67
2022/06/04 14:18:15;;;;;;;3.92;1.92;;;;;;;;;;4943769;28;20554;-68
2022/06/04 14:21:22;;;;;;;10.85;4.72;;;;;;;;;;4930664;29;20058;-68
2022/06/04 14:24:01;;;;;;;8.80;5.00;;;;;;;;;;4921729;29;20063;-67
2022/06/04 14:26:55;;;;;;;11.07;6.60;;;;;;;;;;4931247;29;20166;-68
2022/06/04 14:29:37;;;;;;;5.50;2.38;;;;;;;;;;4906635;29;20405;-68
2022/06/04 14:32:48;;;;;;;4.13;2.25;;;;;;;;;;4918392;29;20064;-68
2022/06/04 14:35:38;;;;;;;4.20;2.22;;;;;;;;;;4918405;29;20420;-67
2022/06/04 14:38:12;;;;;;;5.35;2.40;;;;;;;;;;4911979;29;20067;-68
2022/06/04 14:41:12;;;;;;;7.53;5.13;;;;;;;;;;4931851;29;20464;-68
2022/06/04 14:44:29;;;;;;;5.90;3.38;;;;;;;;;;4940973;29;20052;-68
2022/06/04 14:47:35;;;;;;;5.88;3.17;;;;;;;;;;4914901;29;20044;-68
2022/06/04 14:50:19;;;;;;;5.55;3.30;;;;;;;;;;4887870;29;20056;-68
2022/06/04 14:52:59;;;;;;;8.75;5.00;;;;;;;;;;4886283;29;20600;-67
2022/06/04 14:55:49;;;;;;;5.18;2.75;;;;;;;;;;4879779;29;20528;-69
2022/06/04 14:58:38;;;;;;;5.70;2.55;;;;;;;;;;4904623;29;20062;-69
2022/06/04 15:01:34;;;;;;;26.33;15.88;;;;;;;;;;4916933;29;20818;-68
2022/06/04 15:05:00;;;;;;;7.78;4.45;;;;;;;;;;4918903;29;20067;-68
2022/06/04 15:08:11;;;;;;;5.15;1.70;;;;;;;;;;4922228;29;20504;-68
2022/06/04 15:10:59;;;;;;;3.60;2.30;;;;;;;;;;4874365;28;20614;-67
2022/06/04 15:13:38;;;;;;;5.88;3.70;;;;;;;;;;4937781;29;20063;-68
2022/06/04 15:16:27;;;;;;;9.23;3.22;;;;;;;;;;4946614;29;20070;-67
2022/06/04 15:19:04;;;;;;;5.85;3.20;;;;;;;;;;4937688;29;20078;-69
2022/06/04 15:21:49;;;;;;;3.38;1.75;;;;;;;;;;4945646;29;20060;-69
2022/06/04 15:24:25;;;;;;;4.78;2.80;;;;;;;;;;4992258;28;20066;-67
2022/06/04 15:27:21;;;;;;;4.75;1.98;;;;;;;;;;5008966;28;20048;-67
2022/06/04 15:36:18;;;;;;;5.22;1.50;;;;;;;;;;5051064;28;20551;-67
2022/06/04 15:39:01;;;;;;;9.98;1.75;;;;;;;;;;5070979;28;20055;-67
2022/06/04 15:41:34;;;;;;;4.65;1.98;;;;;;;;;;5071340;28;20061;-71
2022/06/04 15:44:11;;;;;;;3.75;1.65;;;;;;;;;;5071958;28;20048;-67
2022/06/04 15:46:47;;;;;;;2.67;1.65;;;;;;;;;;5070352;28;20052;-67
2022/06/04 15:55:23;;;;;;;4.50;2.00;;;;;;;;;;5054944;28;20048;-67
2022/06/04 15:55:29;;;;;;;2.97;1.50;;;;;;;;;;5032751;28;20536;-68
2022/06/04 15:58:08;;;;;;;5.97;1.83;;;;;;;;;;5068816;28;20056;-67
2022/06/04 16:00:44;;;;;;;9.32;4.93;;;;;;;;;;5034769;28;20092;-69
2022/06/04 16:03:21;;;;;;;3.50;1.02;;;;;;;;;;5070743;28;20052;-67
2022/06/04 16:06:23;;;;;;;2.47;1.48;;;;;;;;;;5070839;28;20087;-67
2022/06/04 16:09:00;;;;;;;4.93;1.20;;;;;;;;;;5087690;28;20060;-67
2022/06/04 16:11:51;;;;;;;4.30;1.45;;;;;;;;;;5049216;28;20052;-69
2022/06/04 16:14:21;;;;;;;3.40;1.23;;;;;;;;;;5066817;28;20060;-69
2022/06/04 16:17:09;;;;;;;2.92;1.40;;;;;;;;;;5073252;28;20068;-68
2022/06/04 16:19:51;;;;;;;2.40;1.30;;;;;;;;;;5059148;28;20048;-67
2022/06/04 16:22:28;;;;;;;2.50;1.35;;;;;;;;;;5015691;28;20054;-67
2022/06/04 16:25:29;;;;;;;2.35;1.33;;;;;;;;;;5013905;28;20056;-67
2022/06/04 16:28:03;;;;;;;3.05;1.30;;;;;;;;;;5055499;28;20068;-67
2022/06/04 16:30:35;;;;;;;5.03;1.60;;;;;;;;;;5031172;28;20048;-67